Time;durP1;ratioP1;P1;durP2;ratioP2;P2;SDS_P1;SDS_P2;PMS_P1;PMS_P2;Temp;Humidity;BMP_temperature;BMP_pressure;BME280_temperature;BME280_humidity;BME280_pressure;Samples;Min_cycle;Max_cycle;Signal;HPM_P1;HPM_P2
2022/05/09 00:01:35;;;;;;;7.63;6.37;;;16.10;99.90;;;;;;5033859;28;20258;-63
2022/05/09 00:04:01;;;;;;;6.60;6.00;;;16.10;99.90;;;;;;5033695;28;20179;-62
2022/05/09 00:06:27;;;;;;;6.87;6.27;;;16.10;99.90;;;;;;5016307;28;20176;-62
2022/05/09 00:08:52;;;;;;;7.20;6.50;;;16.10;99.90;;;;;;5033907;28;20204;-62
2022/05/09 00:11:18;;;;;;;6.73;5.73;;;16.10;99.90;;;;;;5033697;28;20176;-63
2022/05/09 00:13:43;;;;;;;6.40;5.80;;;16.00;99.90;;;;;;5033684;28;20637;-65
2022/05/09 00:16:10;;;;;;;6.33;5.67;;;16.10;99.90;;;;;;5033688;28;20813;-63
2022/05/09 00:18:35;;;;;;;6.63;6.03;;;16.00;99.90;;;;;;5033884;28;20195;-63
2022/05/09 00:21:01;;;;;;;6.37;5.77;;;16.00;99.90;;;;;;5033677;28;20243;-63
2022/05/09 00:23:27;;;;;;;8.03;5.80;;;16.00;99.90;;;;;;5033450;28;20214;-62
2022/05/09 00:25:53;;;;;;;7.30;6.07;;;16.00;99.90;;;;;;5033282;28;20172;-63
2022/05/09 00:28:18;;;;;;;6.70;6.10;;;16.00;99.90;;;;;;5015948;28;20206;-64
2022/05/09 00:30:44;;;;;;;7.93;5.80;;;16.00;99.90;;;;;;5015875;28;20233;-62
2022/05/09 00:33:10;;;;;;;7.30;5.90;;;16.00;99.90;;;;;;5033652;28;20180;-62
2022/05/09 00:35:37;;;;;;;6.50;6.00;;;15.90;99.90;;;;;;5032072;28;20570;-63
2022/05/09 00:38:03;;;;;;;6.33;5.73;;;15.90;99.90;;;;;;5014744;28;20206;-63
2022/05/09 00:40:29;;;;;;;6.90;6.20;;;15.90;99.90;;;;;;5033011;28;20226;-64
2022/05/09 00:42:55;;;;;;;8.30;6.43;;;15.80;99.90;;;;;;5033358;28;20680;-63
2022/05/09 00:45:25;;;;;;;9.70;6.37;;;15.80;99.90;;;;;;5033402;28;20527;-62
2022/05/09 00:47:51;;;;;;;6.30;5.70;;;15.70;99.90;;;;;;5015400;28;20529;-63
2022/05/09 00:50:23;;;;;;;6.77;6.17;;;15.70;99.90;;;;;;5033011;28;20180;-62
2022/05/09 00:52:54;;;;;;;6.50;5.80;;;15.70;99.90;;;;;;5033016;28;20180;-62
2022/05/09 00:55:22;;;;;;;7.00;6.23;;;15.80;99.90;;;;;;5032448;28;20191;-62
2022/05/09 00:58:00;;;;;;;6.40;5.67;;;15.80;99.90;;;;;;5032506;28;20238;-63
2022/05/09 01:00:26;;;;;;;6.13;5.53;;;15.80;99.90;;;;;;5033195;28;20176;-63
2022/05/09 01:02:59;;;;;;;6.23;5.70;;;15.70;99.90;;;;;;5033034;28;20616;-63
2022/05/09 01:05:26;;;;;;;7.07;5.60;;;16.10;99.90;;;;;;5032498;28;20168;-63
2022/05/09 01:07:53;;;;;;;6.17;5.57;;;15.70;99.90;;;;;;5032743;28;20272;-63
2022/05/09 01:10:21;;;;;;;6.37;5.40;;;15.70;99.90;;;;;;5032164;28;20180;-62
2022/05/09 01:12:46;;;;;;;6.90;5.67;;;15.70;99.90;;;;;;5032739;28;20712;-62
2022/05/09 01:15:16;;;;;;;5.80;5.20;;;15.80;99.90;;;;;;5014348;28;20262;-63
2022/05/09 01:17:42;;;;;;;6.80;5.73;;;15.80;99.90;;;;;;5032506;28;20175;-63
2022/05/09 01:20:10;;;;;;;6.03;5.53;;;15.80;99.90;;;;;;5032609;28;20523;-63
2022/05/09 01:22:38;;;;;;;6.03;5.40;;;15.80;99.90;;;;;;5032576;28;20203;-63
2022/05/09 01:25:08;;;;;;;5.80;5.30;;;15.90;99.90;;;;;;5032330;28;20186;-63
2022/05/09 01:27:36;;;;;;;5.83;5.30;;;15.90;99.90;;;;;;5032668;28;20182;-63
2022/05/09 01:30:11;;;;;;;6.77;5.33;;;15.90;99.90;;;;;;5032455;28;20214;-62
2022/05/09 01:32:45;;;;;;;5.80;5.30;;;15.90;99.90;;;;;;5032231;28;20176;-63
2022/05/09 01:35:26;;;;;;;5.50;5.00;;;16.00;99.90;;;;;;5032047;28;20643;-63
2022/05/09 01:37:59;;;;;;;6.17;5.57;;;16.00;99.90;;;;;;5032386;28;20182;-63
2022/05/09 01:40:25;;;;;;;5.70;5.20;;;16.00;99.90;;;;;;5032345;28;20645;-63
2022/05/09 01:42:50;;;;;;;5.87;5.00;;;16.00;99.90;;;;;;5014561;28;20218;-63
2022/05/09 01:45:16;;;;;;;6.43;5.30;;;16.00;99.90;;;;;;5031911;28;20251;-63
2022/05/09 01:50:25;;;;;;;5.60;5.10;;;16.00;99.90;;;;;;5017469;28;20623;-63
2022/05/09 01:52:51;;;;;;;6.80;5.73;;;16.00;99.90;;;;;;5032133;28;20175;-62
2022/05/09 01:55:17;;;;;;;6.27;5.57;;;16.00;99.90;;;;;;5014376;28;20184;-63
2022/05/09 01:57:42;;;;;;;5.43;4.93;;;16.00;99.90;;;;;;5031915;28;20198;-63
2022/05/09 02:00:10;;;;;;;6.97;5.37;;;16.00;99.90;;;;;;5031760;28;20243;-62
2022/05/09 02:02:35;;;;;;;5.50;5.00;;;16.00;99.90;;;;;;5014254;28;20580;-64
2022/05/09 02:05:02;;;;;;;5.73;5.23;;;16.00;99.90;;;;;;5031458;28;20176;-64
2022/05/09 02:07:27;;;;;;;5.70;5.20;;;16.00;99.90;;;;;;5031682;28;20222;-63
2022/05/09 02:09:54;;;;;;;6.30;5.70;;;16.00;99.90;;;;;;5031571;28;20628;-64
2022/05/09 02:12:20;;;;;;;6.20;5.60;;;16.00;99.90;;;;;;5031784;28;20176;-63
2022/05/09 02:14:46;;;;;;;6.93;5.43;;;16.00;99.90;;;;;;5031229;28;20168;-62
2022/05/09 02:17:13;;;;;;;5.97;5.43;;;15.90;99.90;;;;;;5031737;28;20190;-63
2022/05/09 02:19:40;;;;;;;5.40;4.90;;;16.50;99.90;;;;;;5031502;28;20619;-62
2022/05/09 02:22:08;;;;;;;5.80;5.30;;;15.90;99.90;;;;;;5031617;28;20204;-64
2022/05/09 02:24:34;;;;;;;5.80;5.20;;;15.90;99.90;;;;;;5031473;28;20251;-64
2022/05/09 02:27:00;;;;;;;5.87;5.30;;;16.00;99.90;;;;;;5031509;28;20266;-62
2022/05/09 02:29:26;;;;;;;5.70;5.17;;;15.90;99.90;;;;;;5031324;28;20187;-62
2022/05/09 02:31:52;;;;;;;5.90;5.30;;;15.90;99.90;;;;;;5031508;28;20171;-62
2022/05/09 02:34:19;;;;;;;6.57;5.27;;;15.90;99.90;;;;;;5031180;28;20172;-63
2022/05/09 02:36:44;;;;;;;6.27;5.67;;;15.90;99.90;;;;;;5031402;28;20218;-63
2022/05/09 02:39:10;;;;;;;6.53;5.30;;;15.90;99.90;;;;;;5031422;28;20204;-63
2022/05/09 02:41:36;;;;;;;6.10;5.50;;;15.90;99.90;;;;;;5031497;28;20207;-63
2022/05/09 02:44:01;;;;;;;6.33;5.73;;;15.80;99.90;;;;;;5030472;28;20185;-64
2022/05/09 02:46:27;;;;;;;6.43;5.80;;;15.90;99.90;;;;;;5031419;28;20172;-63
2022/05/09 02:48:53;;;;;;;6.87;6.17;;;15.90;99.90;;;;;;5031093;28;20207;-62
2022/05/09 02:51:19;;;;;;;6.27;5.67;;;15.90;99.90;;;;;;5031418;28;20237;-62
2022/05/09 02:53:44;;;;;;;6.53;5.93;;;15.80;99.90;;;;;;5030922;28;20606;-63
2022/05/09 02:56:10;;;;;;;6.17;5.57;;;15.90;99.90;;;;;;5031323;28;20183;-64
2022/05/09 02:58:36;;;;;;;5.70;5.20;;;15.90;99.90;;;;;;5030882;28;20596;-63
2022/05/09 03:01:03;;;;;;;6.10;5.60;;;15.80;99.90;;;;;;5031210;28;20172;-63
2022/05/09 03:06:12;;;;;;;6.13;5.53;;;15.80;99.90;;;;;;5031642;28;20569;-62
2022/05/09 03:08:39;;;;;;;5.60;5.10;;;15.70;99.90;;;;;;5031271;28;20191;-63
2022/05/09 03:11:05;;;;;;;5.67;5.17;;;15.70;99.90;;;;;;5031097;28;20164;-63
2022/05/09 03:13:30;;;;;;;6.93;5.27;;;15.80;99.90;;;;;;5030889;28;20203;-61
2022/05/09 03:15:58;;;;;;;6.03;5.53;;;15.70;99.90;;;;;;5031012;28;20649;-63
2022/05/09 03:18:24;;;;;;;5.90;5.40;;;15.70;99.90;;;;;;5031157;28;20191;-62
2022/05/09 03:20:51;;;;;;;5.97;5.40;;;15.70;99.90;;;;;;5031130;28;20176;-64
2022/05/09 03:23:17;;;;;;;6.57;5.37;;;15.70;99.90;;;;;;5031113;28;20206;-63
2022/05/09 03:25:43;;;;;;;6.17;5.57;;;15.70;99.90;;;;;;5030343;28;20637;-63
2022/05/09 03:28:16;;;;;;;6.10;5.33;;;15.60;99.90;;;;;;5030625;28;20249;-63
2022/05/09 03:30:44;;;;;;;5.80;5.23;;;15.60;99.90;;;;;;5033138;28;20169;-62
2022/05/09 03:33:11;;;;;;;5.83;5.33;;;15.60;99.90;;;;;;5034377;28;20194;-63
2022/05/09 03:35:38;;;;;;;5.87;5.10;;;15.50;99.90;;;;;;5034556;28;20564;-64
2022/05/09 03:38:04;;;;;;;5.73;5.23;;;15.60;99.90;;;;;;5034206;28;20206;-63
2022/05/09 03:40:30;;;;;;;6.40;5.07;;;15.50;99.90;;;;;;5034610;28;20203;-62
2022/05/09 03:42:56;;;;;;;6.20;5.60;;;15.50;99.90;;;;;;5034355;28;20704;-64
2022/05/09 03:45:22;;;;;;;6.87;4.87;;;15.40;99.90;;;;;;5034278;28;20255;-63
2022/05/09 03:47:48;;;;;;;6.77;5.70;;;15.50;99.90;;;;;;5034078;28;20274;-63
2022/05/09 03:50:14;;;;;;;8.83;5.47;;;15.50;99.90;;;;;;5034530;28;20197;-62
2022/05/09 03:52:40;;;;;;;6.77;5.20;;;15.40;99.90;;;;;;5034287;28;20321;-62
2022/05/09 03:55:07;;;;;;;5.70;5.03;;;15.40;99.90;;;;;;5033882;28;20700;-62
2022/05/09 03:57:32;;;;;;;5.60;5.10;;;15.40;99.90;;;;;;5035418;28;20179;-64
2022/05/09 04:00:08;;;;;;;5.80;5.30;;;15.40;99.90;;;;;;5033982;28;20205;-62
2022/05/09 04:02:33;;;;;;;10.27;5.87;;;15.40;99.90;;;;;;5034115;28;20199;-62
2022/05/09 04:04:59;;;;;;;5.70;5.10;;;15.30;99.90;;;;;;5033785;28;20222;-63
2022/05/09 04:07:24;;;;;;;6.43;5.33;;;15.40;99.90;;;;;;5033881;28;20168;-62
2022/05/09 04:09:50;;;;;;;5.60;5.10;;;15.30;99.90;;;;;;5033909;28;20191;-63
2022/05/09 04:12:17;;;;;;;6.57;4.90;;;15.30;99.90;;;;;;5034078;28;20252;-62
2022/05/09 04:17:27;;;;;;;5.47;4.97;;;15.30;99.90;;;;;;5034120;28;20183;-60
2022/05/09 04:19:53;;;;;;;6.20;5.60;;;15.30;99.90;;;;;;5033734;28;20587;-62
2022/05/09 04:22:18;;;;;;;6.30;5.50;;;15.40;99.90;;;;;;5033676;28;20552;-62
2022/05/09 04:24:44;;;;;;;6.30;5.70;;;15.30;99.90;;;;;;5033484;28;20171;-63
2022/05/09 04:27:10;;;;;;;6.27;5.67;;;15.40;99.90;;;;;;5033521;28;20505;-62
2022/05/09 04:29:35;;;;;;;7.40;5.60;;;15.40;99.90;;;;;;5033460;28;20191;-62
2022/05/09 04:32:01;;;;;;;6.47;5.87;;;15.50;99.90;;;;;;5033315;28;20599;-63
2022/05/09 04:34:26;;;;;;;6.53;5.57;;;15.50;99.90;;;;;;5033110;28;20223;-61
2022/05/09 04:36:52;;;;;;;7.67;6.30;;;15.60;99.90;;;;;;5033375;28;20175;-62
2022/05/09 04:39:20;;;;;;;6.93;5.80;;;15.70;99.90;;;;;;5033320;28;20577;-62
2022/05/09 04:41:46;;;;;;;7.10;6.40;;;15.70;99.90;;;;;;5033033;28;20549;-62
2022/05/09 04:44:11;;;;;;;7.47;6.77;;;15.80;99.90;;;;;;5032959;28;20176;-64
2022/05/09 04:46:37;;;;;;;9.90;8.10;;;15.80;99.90;;;;;;5033303;28;20576;-62
2022/05/09 04:49:03;;;;;;;8.70;7.77;;;15.90;99.90;;;;;;5032953;28;20218;-62
2022/05/09 04:51:28;;;;;;;7.37;6.30;;;15.90;99.90;;;;;;5033310;28;20183;-62
2022/05/09 04:53:54;;;;;;;7.50;6.80;;;16.10;99.90;;;;;;5032734;28;20180;-63
2022/05/09 04:56:20;;;;;;;6.63;6.03;;;16.20;99.90;;;;;;5033113;28;20267;-63
2022/05/09 04:58:46;;;;;;;8.17;6.60;;;16.20;99.90;;;;;;5032952;28;20192;-62
2022/05/09 05:01:11;;;;;;;6.67;6.07;;;16.30;99.90;;;;;;5033123;28;20176;-63
2022/05/09 05:03:37;;;;;;;7.80;6.60;;;16.40;99.90;;;;;;5032711;28;20661;-63
2022/05/09 05:06:04;;;;;;;7.67;6.47;;;16.50;99.90;;;;;;5032866;28;20183;-63
2022/05/09 05:08:33;;;;;;;6.80;6.20;;;16.60;99.90;;;;;;5032910;28;20262;-63
2022/05/09 05:10:59;;;;;;;7.70;6.67;;;16.70;99.90;;;;;;5015241;28;20210;-63
2022/05/09 05:13:26;;;;;;;7.67;6.97;;;16.80;99.90;;;;;;5032640;28;20215;-63
2022/05/09 05:15:53;;;;;;;7.53;6.83;;;16.80;99.90;;;;;;5032460;28;20171;-63
2022/05/09 05:18:21;;;;;;;7.57;6.90;;;16.80;99.90;;;;;;5032736;28;20204;-63
2022/05/09 05:20:46;;;;;;;6.70;6.10;;;16.90;99.90;;;;;;5032692;28;20179;-63
2022/05/09 05:23:12;;;;;;;7.30;6.60;;;17.00;99.90;;;;;;5032663;28;20204;-63
2022/05/09 05:25:40;;;;;;;6.60;5.93;;;17.20;99.90;;;;;;5014310;28;20294;-63
2022/05/09 05:28:06;;;;;;;7.20;6.50;;;17.30;99.90;;;;;;5032070;28;20193;-64
2022/05/09 05:30:32;;;;;;;5.90;5.40;;;17.30;99.90;;;;;;5032345;28;20204;-64
2022/05/09 05:32:59;;;;;;;6.27;5.67;;;17.50;99.90;;;;;;5032508;28;20661;-63
2022/05/09 05:35:25;;;;;;;6.07;5.33;;;17.60;99.90;;;;;;5032281;28;20659;-63
2022/05/09 05:37:51;;;;;;;6.43;5.37;;;17.60;99.90;;;;;;5031509;28;20187;-62
2022/05/09 05:40:17;;;;;;;5.40;4.90;;;17.70;99.90;;;;;;5032341;28;20227;-63
2022/05/09 05:42:44;;;;;;;6.30;5.20;;;17.70;99.90;;;;;;5032153;28;20202;-62
2022/05/09 05:45:11;;;;;;;5.47;4.97;;;18.00;99.90;;;;;;5031432;28;20200;-64
2022/05/09 05:47:37;;;;;;;5.33;4.83;;;18.00;99.90;;;;;;5031615;28;20786;-59
2022/05/09 05:50:06;;;;;;;5.43;4.93;;;18.10;99.90;;;;;;5032015;28;20203;-63
2022/05/09 05:52:31;;;;;;;4.93;4.50;;;18.20;99.90;;;;;;5031340;28;20263;-63
2022/05/09 05:54:57;;;;;;;5.67;4.40;;;18.20;99.90;;;;;;5031608;28;20267;-63
2022/05/09 05:57:29;;;;;;;7.03;4.90;;;18.40;99.90;;;;;;5032157;28;20188;-63
2022/05/09 06:00:02;;;;;;;5.30;4.80;;;18.40;99.90;;;;;;5031344;28;20199;-62
2022/05/09 06:02:28;;;;;;;5.63;5.13;;;18.50;99.90;;;;;;5031577;28;20249;-62
2022/05/09 06:04:53;;;;;;;5.67;5.13;;;18.60;99.90;;;;;;5031941;28;20576;-63
2022/05/09 06:07:20;;;;;;;6.90;5.83;;;18.60;99.90;;;;;;5031721;28;20258;-63
2022/05/09 06:09:46;;;;;;;5.77;5.27;;;18.60;99.90;;;;;;5031575;28;20242;-63
2022/05/09 06:12:14;;;;;;;5.57;5.03;;;18.60;99.90;;;;;;5031609;28;20188;-62
2022/05/09 06:14:40;;;;;;;5.50;5.00;;;18.60;99.90;;;;;;5031170;28;20272;-62
2022/05/09 06:17:08;;;;;;;6.13;5.30;;;18.60;99.90;;;;;;5031801;28;20184;-62
2022/05/09 06:19:34;;;;;;;5.93;5.37;;;18.80;99.90;;;;;;5031147;28;20196;-61
2022/05/09 06:22:00;;;;;;;5.53;5.00;;;18.80;99.90;;;;;;5031036;28;20208;-64
2022/05/09 06:24:26;;;;;;;5.90;5.30;;;18.70;99.90;;;;;;5031536;28;20720;-61
2022/05/09 06:26:52;;;;;;;6.77;5.17;;;18.70;99.90;;;;;;5031583;28;20260;-62
2022/05/09 06:29:18;;;;;;;5.40;4.90;;;18.50;99.90;;;;;;5031464;28;20271;-62
2022/05/09 06:31:45;;;;;;;5.17;4.77;;;18.50;99.90;;;;;;5031651;28;20160;-62
2022/05/09 06:34:13;;;;;;;5.50;4.90;;;18.60;99.90;;;;;;5031362;28;20574;-61
2022/05/09 06:36:39;;;;;;;5.97;5.07;;;18.60;99.90;;;;;;5031628;28;20641;-62
2022/05/09 06:39:09;;;;;;;6.00;5.40;;;18.60;99.90;;;;;;5031554;28;20267;-62
2022/05/09 06:41:35;;;;;;;7.43;5.50;;;18.40;99.90;;;;;;5031437;28;20777;-62
2022/05/09 06:44:00;;;;;;;7.23;5.53;;;18.40;99.90;;;;;;5031041;28;20168;-61
2022/05/09 06:46:26;;;;;;;5.80;5.20;;;18.60;99.90;;;;;;5031536;28;20176;-62
2022/05/09 06:48:52;;;;;;;7.77;5.07;;;18.70;99.90;;;;;;5031349;28;20604;-62
2022/05/09 06:51:18;;;;;;;6.03;5.53;;;18.80;99.90;;;;;;5031588;28;20173;-62
2022/05/09 06:53:44;;;;;;;6.93;5.33;;;18.90;99.90;;;;;;5031211;28;20184;-64
2022/05/09 06:56:10;;;;;;;6.97;5.67;;;18.70;99.90;;;;;;5031228;28;20183;-63
2022/05/09 06:58:36;;;;;;;6.13;5.60;;;18.70;99.90;;;;;;5031407;28;20665;-62
2022/05/09 07:01:10;;;;;;;6.83;6.13;;;18.40;99.90;;;;;;5031426;28;20183;-62
2022/05/09 07:03:36;;;;;;;7.67;5.80;;;18.30;99.90;;;;;;5031475;28;20209;-62
2022/05/09 07:06:01;;;;;;;7.57;6.20;;;18.00;99.90;;;;;;5035141;28;20172;-62
2022/05/09 07:08:32;;;;;;;6.70;5.37;;;17.90;99.90;;;;;;5035137;28;20552;-62
2022/05/09 07:10:57;;;;;;;5.93;5.33;;;18.10;99.90;;;;;;5035307;28;20199;-62
2022/05/09 07:13:23;;;;;;;6.93;6.23;;;18.20;99.90;;;;;;5034912;28;20277;-62
2022/05/09 07:15:49;;;;;;;7.53;5.90;;;18.10;99.90;;;;;;5035004;28;20200;-62
2022/05/09 07:18:14;;;;;;;5.90;5.30;;;18.30;99.90;;;;;;5035034;28;20228;-62
2022/05/09 07:20:40;;;;;;;6.27;5.60;;;18.40;99.90;;;;;;5035076;28;20203;-62
2022/05/09 07:23:10;;;;;;;6.90;5.80;;;18.60;99.90;;;;;;5034849;28;20282;-62
2022/05/09 07:25:37;;;;;;;6.77;6.07;;;18.70;99.90;;;;;;5034803;28;20179;-63
2022/05/09 07:28:04;;;;;;;5.57;4.80;;;18.60;99.90;;;;;;5034717;28;20546;-60
2022/05/09 07:30:31;;;;;;;6.43;5.77;;;18.90;99.90;;;;;;5034945;28;20645;-62
2022/05/09 07:32:57;;;;;;;6.97;5.97;;;19.00;99.90;;;;;;5034819;28;20183;-63
2022/05/09 07:35:24;;;;;;;6.07;5.47;;;19.20;99.90;;;;;;5034515;28;20178;-65
2022/05/09 07:37:50;;;;;;;6.87;6.17;;;19.20;99.90;;;;;;5034313;28;20188;-60
2022/05/09 07:40:17;;;;;;;6.57;5.93;;;19.30;99.90;;;;;;5034746;28;20168;-61
2022/05/09 07:42:45;;;;;;;6.87;6.17;;;19.10;99.90;;;;;;5034565;28;20282;-64
2022/05/09 07:45:13;;;;;;;7.27;5.97;;;19.10;99.90;;;;;;5034219;28;20664;-63
2022/05/09 07:47:40;;;;;;;7.40;6.70;;;19.00;99.90;;;;;;5034367;28;20171;-64
2022/05/09 07:50:07;;;;;;;5.87;5.37;;;18.80;99.90;;;;;;5034272;28;20184;-62
2022/05/09 07:52:33;;;;;;;7.33;5.70;;;18.90;99.90;;;;;;5034460;28;20184;-62
2022/05/09 07:54:58;;;;;;;6.30;5.70;;;19.10;99.90;;;;;;5034145;28;20183;-62
2022/05/09 07:57:25;;;;;;;8.53;5.93;;;19.30;99.90;;;;;;5034318;28;20183;-63
2022/05/09 07:59:50;;;;;;;6.60;5.67;;;19.50;99.90;;;;;;5034109;28;20207;-62
2022/05/09 08:02:16;;;;;;;6.50;5.80;;;19.70;99.90;;;;;;5034254;28;20206;-64
2022/05/09 08:04:41;;;;;;;6.03;5.43;;;19.80;99.90;;;;;;5033871;28;20236;-62
2022/05/09 08:07:08;;;;;;;5.70;5.17;;;19.80;99.90;;;;;;5034131;28;20207;-62
2022/05/09 08:09:34;;;;;;;7.63;6.03;;;19.90;99.90;;;;;;5034153;28;20604;-62
2022/05/09 08:12:00;;;;;;;6.47;5.33;;;19.90;99.90;;;;;;5033983;28;20188;-59
2022/05/09 08:14:27;;;;;;;6.00;5.47;;;20.00;99.90;;;;;;5033767;28;20644;-61
2022/05/09 08:16:54;;;;;;;5.70;5.20;;;19.90;99.90;;;;;;5033279;28;20184;-62
2022/05/09 08:19:19;;;;;;;6.60;5.30;;;20.00;99.90;;;;;;5033780;28;20203;-63
2022/05/09 08:21:49;;;;;;;6.70;6.10;;;20.10;99.90;;;;;;5033915;28;20777;-65
2022/05/09 08:24:16;;;;;;;7.17;5.63;;;20.30;99.90;;;;;;5033685;28;20168;-63
2022/05/09 08:26:41;;;;;;;8.03;6.10;;;20.00;99.90;;;;;;5033714;28;20180;-64
2022/05/09 08:29:07;;;;;;;6.97;5.03;;;20.00;99.90;;;;;;5033651;28;20200;-62
2022/05/09 08:31:33;;;;;;;6.03;5.43;;;19.90;99.90;;;;;;5033768;28;20172;-63
2022/05/09 08:33:59;;;;;;;6.00;4.93;;;20.10;99.90;;;;;;5033243;28;20187;-62
2022/05/09 08:39:10;;;;;;;6.00;5.50;;;20.60;99.90;;;;;;5033829;28;20627;-62
2022/05/09 08:42:00;;;;;;;6.75;5.82;;;20.60;99.90;;;;;;5033527;28;20181;-62
2022/05/09 08:44:36;;;;;;;7.53;5.82;;;20.60;99.90;;;;;;5032950;28;20214;-62
2022/05/09 08:47:20;;;;;;;7.32;6.15;;;20.70;99.90;;;;;;5033620;28;20172;-62
2022/05/09 08:49:56;;;;;;;7.03;5.00;;;20.60;99.90;;;;;;5033124;28;20207;-63
2022/05/09 08:52:42;;;;;;;5.53;4.93;;;20.80;99.90;;;;;;5033332;28;20168;-63
2022/05/09 08:55:10;;;;;;;5.13;4.60;;;20.90;99.90;;;;;;5033012;28;20183;-62
2022/05/09 08:57:44;;;;;;;6.50;5.07;;;21.10;99.90;;;;;;5033250;28;20281;-63
2022/05/09 09:00:11;;;;;;;5.70;5.20;;;21.30;99.90;;;;;;5033183;28;20252;-62
2022/05/09 09:02:46;;;;;;;6.70;6.10;;;21.50;99.90;;;;;;5033174;28;20198;-62
2022/05/09 09:05:14;;;;;;;5.80;5.30;;;21.50;99.90;;;;;;5032703;28;20169;-62
2022/05/09 09:07:55;;;;;;;6.18;5.60;;;21.20;99.90;;;;;;5032978;28;20179;-61
2022/05/09 09:10:26;;;;;;;6.03;5.43;;;21.20;99.90;;;;;;5033082;28;20269;-62
2022/05/09 09:13:09;;;;;;;5.38;4.88;;;21.30;99.90;;;;;;5033068;28;20656;-62
2022/05/09 09:16:12;;;;;;;5.97;5.38;;;21.40;99.90;;;;;;5032480;28;20670;-62
2022/05/09 09:19:20;;;;;;;5.53;5.10;;;21.40;99.90;;;;;;4933260;29;20306;-60
2022/05/09 09:22:10;;;;;;;6.30;5.70;;;21.40;99.90;;;;;;4933220;29;20194;-63
2022/05/09 09:24:41;;;;;;;6.88;4.90;;;21.30;99.90;;;;;;4932793;29;20237;-64
2022/05/09 09:27:24;;;;;;;6.65;5.60;;;21.10;99.90;;;;;;4932533;29;20282;-62
2022/05/09 09:29:56;;;;;;;5.47;4.75;;;21.50;99.90;;;;;;4932963;29;20641;-63
2022/05/09 09:32:23;;;;;;;5.97;5.43;;;21.90;99.90;;;;;;4932984;29;20180;-61
2022/05/09 09:35:24;;;;;;;6.93;5.07;;;21.80;99.90;;;;;;4932769;29;20183;-61
2022/05/09 09:38:14;;;;;;;5.90;5.28;;;21.80;99.90;;;;;;4932984;29;20230;-62
2022/05/09 09:40:40;;;;;;;5.13;4.63;;;21.90;99.90;;;;;;4934062;29;20191;-62
2022/05/09 09:43:05;;;;;;;5.75;5.25;;;22.20;99.90;;;;;;4940320;29;20692;-61
2022/05/09 09:45:36;;;;;;;6.22;5.05;;;22.40;99.90;;;;;;4945334;29;20274;-61
2022/05/09 09:48:09;;;;;;;6.70;5.85;;;22.50;99.90;;;;;;4951518;29;20214;-62
2022/05/09 09:50:36;;;;;;;5.97;5.28;;;22.20;99.90;;;;;;4952003;29;20179;-63
2022/05/09 09:53:03;;;;;;;6.05;5.30;;;22.30;99.90;;;;;;4951802;29;20201;-62
2022/05/09 09:55:32;;;;;;;5.60;4.90;;;22.40;99.90;;;;;;5006590;28;20187;-63
2022/05/09 09:58:16;;;;;;;5.53;5.03;;;22.40;99.90;;;;;;5051893;28;20656;-64
2022/05/09 10:00:41;;;;;;;6.57;4.95;;;22.60;99.90;;;;;;5047458;28;20603;-60
2022/05/09 10:03:22;;;;;;;6.70;5.20;;;22.80;99.90;;;;;;5031680;28;20195;-62
2022/05/09 10:05:50;;;;;;;5.63;4.97;;;22.70;99.90;;;;;;5031750;28;20259;-62
2022/05/09 10:08:30;;;;;;;6.22;5.63;;;22.50;99.90;;;;;;5040550;28;20750;-62
2022/05/09 10:11:04;;;;;;;5.70;5.10;;;22.60;99.90;;;;;;5040987;28;20705;-62
2022/05/09 10:13:42;;;;;;;5.70;5.20;;;22.70;99.90;;;;;;5051158;28;20183;-56
2022/05/09 10:16:21;;;;;;;7.82;5.50;;;23.00;99.90;;;;;;5048363;28;20257;-62
2022/05/09 10:18:46;;;;;;;6.38;5.15;;;23.20;99.90;;;;;;5051466;28;20206;-61
2022/05/09 10:21:17;;;;;;;6.38;5.25;;;23.10;99.90;;;;;;5051406;28;20176;-62
2022/05/09 10:26:36;;;;;;;5.63;5.03;;;23.30;99.50;;;;;;5035164;28;20218;-63
2022/05/09 10:29:13;;;;;;;6.55;5.05;;;23.40;98.20;;;;;;5015524;28;20834;-60
2022/05/09 10:31:44;;;;;;;5.65;5.13;;;23.30;98.80;;;;;;5019020;28;20174;-62
2022/05/09 10:34:12;;;;;;;5.28;4.85;;;23.20;99.40;;;;;;5050991;28;20171;-64
2022/05/09 10:37:02;;;;;;;5.35;4.60;;;23.50;99.40;;;;;;5051183;28;20203;-65
2022/05/09 10:39:33;;;;;;;5.38;4.88;;;23.90;99.40;;;;;;4981910;28;20240;-61
2022/05/09 10:42:02;;;;;;;5.15;4.68;;;24.30;98.00;;;;;;4989062;28;20186;-63
2022/05/09 10:45:15;;;;;;;5.88;4.88;;;24.60;98.70;;;;;;4991785;28;20208;-60
2022/05/09 10:47:56;;;;;;;5.15;4.65;;;24.40;97.40;;;;;;4974073;28;20197;-61
2022/05/09 10:50:50;;;;;;;5.22;4.72;;;24.10;98.00;;;;;;5053629;22;20627;-65
2022/05/09 10:53:29;;;;;;;5.20;4.70;;;23.80;97.70;;;;;;5022707;28;20685;-64
2022/05/09 10:56:20;;;;;;;6.97;5.43;;;23.70;98.20;;;;;;5015211;28;20188;-64
2022/05/09 10:59:04;;;;;;;5.30;4.40;;;23.40;98.80;;;;;;5003791;28;20176;-62
2022/05/09 11:01:50;;;;;;;6.07;4.95;;;23.50;99.20;;;;;;5008180;28;20197;-65
2022/05/09 11:04:16;;;;;;;4.90;4.50;;;23.70;98.20;;;;;;5010234;28;20550;-65
2022/05/09 11:06:52;;;;;;;6.43;4.90;;;23.70;97.90;;;;;;5012245;28;20172;-64
2022/05/09 11:09:36;;;;;;;6.10;4.57;;;23.80;98.30;;;;;;4969352;28;20730;-63
2022/05/09 11:12:08;;;;;;;4.95;4.43;;;24.10;98.60;;;;;;4991903;28;20190;-65
2022/05/09 11:14:58;;;;;;;4.63;4.22;;;24.40;98.30;;;;;;4999022;28;20170;-63
2022/05/09 11:17:38;;;;;;;5.82;4.30;;;24.80;98.60;;;;;;5012849;28;20185;-63
2022/05/09 11:20:28;;;;;;;5.13;4.50;;;25.00;97.00;;;;;;4997267;28;20661;-65
2022/05/09 11:23:24;;;;;;;5.18;4.47;;;25.20;97.30;;;;;;5013894;28;20215;-64
2022/05/09 11:26:01;;;;;;;5.28;4.65;;;25.10;96.00;;;;;;4996345;28;20665;-63
2022/05/09 11:28:44;;;;;;;4.45;4.05;;;25.20;95.90;;;;;;5010335;28;20539;-61
2022/05/09 11:31:52;;;;;;;4.32;3.92;;;25.40;97.50;;;;;;4962990;28;20322;-65
2022/05/09 11:34:36;;;;;;;4.70;4.20;;;25.70;94.70;;;;;;4995794;28;20859;-63
2022/05/09 11:37:47;;;;;;;4.60;4.07;;;25.50;93.50;;;;;;4995067;28;20264;-64
2022/05/09 11:40:28;;;;;;;4.00;3.70;;;25.10;94.20;;;;;;4935033;29;20199;-64
2022/05/09 11:46:10;;;;;;;4.55;3.85;;;24.60;94.80;;;;;;4934966;29;20291;-63
2022/05/09 11:48:41;;;;;;;4.05;3.50;;;24.60;94.10;;;;;;4935076;29;20737;-64
2022/05/09 11:51:22;;;;;;;4.35;3.97;;;24.80;94.00;;;;;;4929069;29;20246;-63
2022/05/09 11:53:54;;;;;;;4.20;3.50;;;25.00;93.80;;;;;;4915828;29;20183;-63
2022/05/09 11:56:20;;;;;;;5.30;3.80;;;25.30;93.50;;;;;;4925155;29;20203;-63
2022/05/09 11:58:46;;;;;;;4.88;4.00;;;25.40;93.30;;;;;;4916825;29;20196;-64
2022/05/09 12:01:12;;;;;;;4.10;3.80;;;25.50;91.60;;;;;;4915986;29;20199;-65
2022/05/09 12:03:40;;;;;;;4.25;3.83;;;25.60;93.20;;;;;;4924445;29;20208;-64
2022/05/09 12:06:28;;;;;;;5.55;4.30;;;25.80;93.70;;;;;;4925408;29;20183;-66
2022/05/09 12:08:56;;;;;;;5.05;4.55;;;25.50;93.80;;;;;;4920658;29;20275;-62
2022/05/09 12:11:31;;;;;;;6.25;4.68;;;25.50;94.70;;;;;;4962265;28;20181;-63
2022/05/09 12:14:00;;;;;;;4.90;4.22;;;25.20;95.40;;;;;;4984035;28;20218;-65
2022/05/09 12:16:35;;;;;;;5.32;4.63;;;25.10;96.40;;;;;;4983432;28;20180;-61
2022/05/09 12:19:05;;;;;;;5.35;4.30;;;25.00;96.10;;;;;;4984583;28;20667;-65
2022/05/09 12:21:37;;;;;;;4.47;4.07;;;24.80;95.50;;;;;;4980880;28;20547;-65
2022/05/09 12:24:14;;;;;;;4.38;3.97;;;24.30;95.70;;;;;;4983481;28;20236;-62
2022/05/09 12:26:43;;;;;;;5.10;4.30;;;24.00;95.30;;;;;;4984596;28;20648;-61
2022/05/09 12:29:11;;;;;;;6.30;3.60;;;23.90;95.80;;;;;;4982888;28;20166;-63
2022/05/09 12:31:44;;;;;;;4.22;3.42;;;24.00;96.20;;;;;;4984340;28;20180;-63
2022/05/09 12:34:15;;;;;;;3.75;2.80;;;24.30;95.10;;;;;;4985012;28;20177;-64
2022/05/09 12:36:46;;;;;;;3.75;2.88;;;24.40;92.90;;;;;;4984515;28;20166;-63
2022/05/09 12:39:36;;;;;;;3.70;3.28;;;24.10;94.70;;;;;;4979805;28;20194;-62
2022/05/09 12:42:11;;;;;;;3.40;3.10;;;24.00;94.10;;;;;;4974716;28;20194;-65
2022/05/09 12:44:44;;;;;;;5.53;3.40;;;24.00;94.60;;;;;;4974516;28;20174;-63
2022/05/09 12:47:13;;;;;;;4.38;3.58;;;23.80;94.90;;;;;;4974646;28;20174;-63
2022/05/09 12:49:54;;;;;;;6.38;3.60;;;23.90;95.00;;;;;;4974456;28;20221;-65
2022/05/09 12:52:23;;;;;;;5.20;4.07;;;23.80;94.20;;;;;;4974739;28;20170;-62
2022/05/09 12:57:38;;;;;;;4.70;4.30;;;23.40;95.60;;;;;;4974833;28;20401;-64
2022/05/09 13:00:13;;;;;;;6.82;3.95;;;23.10;97.00;;;;;;4974342;28;20193;-65
2022/05/09 13:02:40;;;;;;;4.95;4.25;;;23.30;97.20;;;;;;4956763;28;20213;-63
2022/05/09 13:05:06;;;;;;;5.32;4.28;;;23.70;96.30;;;;;;4974144;28;20174;-66
2022/05/09 13:07:31;;;;;;;4.68;3.97;;;24.00;97.10;;;;;;4987528;28;20838;-65
2022/05/09 13:09:58;;;;;;;4.30;3.55;;;24.20;97.40;;;;;;4993582;28;20197;-63
2022/05/09 13:12:29;;;;;;;4.15;3.80;;;24.20;95.00;;;;;;4996919;28;20170;-63
2022/05/09 13:14:59;;;;;;;4.82;4.00;;;23.70;95.20;;;;;;4990470;28;20177;-63
2022/05/09 13:17:31;;;;;;;3.67;3.38;;;23.50;94.80;;;;;;4989152;28;20545;-63
2022/05/09 13:19:58;;;;;;;4.47;3.65;;;23.40;94.60;;;;;;4993896;28;20283;-62
2022/05/09 13:22:30;;;;;;;3.38;3.08;;;23.40;95.70;;;;;;4988899;28;20200;-62